SouthEast Lincoln: Weather Underground Data


Davis Vantage Pro Historical Data
 
Daily Summary for February 19, 2019 Units:  English    Metric   Both
« Previous Day
Next Day »
Daily Weekly Monthly Yearly Custom
  Current: High: Low: Average:
Temperature: 10.8 °F TemperatureF °F 10.1 °F 11.2 °F
Dew Point: 7.7 °F DewpointF °F 6.8 °F 7.5 °F
Humidity: 87% Humidity% 81% 83%
Wind Speed: 5.0mph WindSpeedMPHmph 0.0mph 0.3mph
Wind Gust: 5.0mph WindSpeedGustMPHmph - -
Wind:ENE - - ENE
Pressure: 30.63 in PressureIn in 30.62 in -
Precipitation: 0.00 in      
Historical Graphs
 
 
Tabular Data for February 19, 2019
Time Temperature Dew Point Pressure Wind Wind Speed Wind Gust Humidity Rainfall Rate (Hourly) solar
TemperatureF °F DewpointF °F PressureIn in Calm     Humidity% HourlyPrecipIn in SolarRadiationWatts/m^2 W/m2
00:00 14.3 °F 9.6 °F 30.64 in NE 2.0 mph 4.0 mph 81% 0.00 in 0.00 W/m2
00:05 14.1 °F 9.3 °F 30.64 in Calm   1.0 mph 81% 0.00 in 0.00 W/m2
00:10 14.0 °F 9.3 °F 30.64 in Calm     81% 0.00 in 0.00 W/m2
00:15 13.9 °F 9.2 °F 30.64 in Calm     81% 0.00 in 0.00 W/m2
00:20 13.7 °F 9.0 °F 30.64 in Calm     81% 0.00 in 0.00 W/m2
00:25 13.6 °F 8.9 °F 30.64 in NE 1.0 mph 1.0 mph 81% 0.00 in 0.00 W/m2
00:30 13.5 °F 9.0 °F 30.64 in Calm   1.0 mph 82% 0.00 in 0.00 W/m2
00:35 13.3 °F 8.8 °F 30.63 in Calm   1.0 mph 82% 0.00 in 0.00 W/m2
00:40 13.1 °F 8.7 °F 30.63 in Calm     82% 0.00 in 0.00 W/m2
00:45 13.0 °F 8.6 °F 30.64 in Calm     82% 0.00 in 0.00 W/m2
00:50 12.9 °F 8.7 °F 30.64 in Calm   1.0 mph 83% 0.00 in 0.00 W/m2
00:55 12.8 °F 8.6 °F 30.64 in ENE 1.0 mph 1.0 mph 83% 0.00 in 0.00 W/m2
01:00 12.7 °F 8.5 °F 30.65 in Calm     83% 0.00 in 0.00 W/m2
01:05 12.5 °F 8.3 °F 30.65 in Calm     83% 0.00 in 0.00 W/m2
01:10 12.3 °F 8.1 °F 30.65 in Calm     83% 0.00 in 0.00 W/m2
01:15 12.2 °F 8.0 °F 30.66 in Calm     83% 0.00 in 0.00 W/m2
01:20 11.9 °F 7.7 °F 30.66 in Calm     83% 0.00 in 0.00 W/m2
01:25 11.6 °F 7.5 °F 30.67 in Calm     83% 0.00 in 0.00 W/m2
01:30 11.4 °F 7.2 °F 30.67 in Calm     83% 0.00 in 0.00 W/m2
01:35 11.3 °F 7.2 °F 30.67 in Calm     83% 0.00 in 0.00 W/m2
01:40 11.2 °F 7.3 °F 30.67 in Calm     84% 0.00 in 0.00 W/m2
01:45 11.1 °F 7.2 °F 30.66 in Calm     84% 0.00 in 0.00 W/m2
01:50 11.1 °F 7.2 °F 30.66 in Calm     84% 0.00 in 0.00 W/m2
01:55 11.0 °F 7.1 °F 30.65 in Calm     84% 0.00 in 0.00 W/m2
02:00 11.0 °F 7.1 °F 30.65 in Calm     84% 0.00 in 0.00 W/m2
02:05 11.0 °F 7.1 °F 30.65 in Calm     84% 0.00 in 0.00 W/m2
02:10 10.9 °F 7.0 °F 30.65 in Calm     84% 0.00 in 0.00 W/m2
02:15 10.8 °F 6.9 °F 30.64 in Calm     84% 0.00 in 0.00 W/m2
02:20 10.8 °F 7.2 °F 30.64 in Calm     85% 0.00 in 0.00 W/m2
02:25 10.7 °F 7.1 °F 30.64 in Calm     85% 0.00 in 0.00 W/m2
02:30 10.6 °F 7.0 °F 30.65 in Calm     85% 0.00 in 0.00 W/m2
02:35 10.6 °F 7.0 °F 30.65 in Calm     85% 0.00 in 0.00 W/m2
02:40 10.6 °F 7.0 °F 30.65 in Calm     85% 0.00 in 0.00 W/m2
02:45 10.6 °F 7.0 °F 30.64 in Calm     85% 0.00 in 0.00 W/m2
02:50 10.6 °F 7.2 °F 30.65 in Calm     86% 0.00 in 0.00 W/m2
02:55 10.5 °F 7.2 °F 30.65 in Calm     86% 0.00 in 0.00 W/m2
03:00 10.5 °F 7.2 °F 30.65 in Calm   1.0 mph 86% 0.00 in 0.00 W/m2
03:05 10.5 °F 7.2 °F 30.65 in Calm     86% 0.00 in 0.00 W/m2
03:10 10.5 °F 7.2 °F 30.65 in Calm   1.0 mph 86% 0.00 in 0.00 W/m2
03:15 10.4 °F 7.0 °F 30.64 in Calm     86% 0.00 in 0.00 W/m2
03:20 10.3 °F 7.0 °F 30.65 in Calm     86% 0.00 in 0.00 W/m2
03:25 10.2 °F 6.8 °F 30.64 in Calm     86% 0.00 in 0.00 W/m2
03:30 10.1 °F 6.8 °F 30.64 in Calm     86% 0.00 in 0.00 W/m2
03:35 10.1 °F 6.8 °F 30.64 in Calm     86% 0.00 in 0.00 W/m2
03:40 10.1 °F 6.8 °F 30.63 in Calm     86% 0.00 in 0.00 W/m2
03:45 10.1 °F 6.8 °F 30.63 in Calm     86% 0.00 in 0.00 W/m2
03:50 10.1 °F 6.8 °F 30.63 in Calm     86% 0.00 in 0.00 W/m2
03:55 10.1 °F 7.0 °F 30.63 in Calm     87% 0.00 in 0.00 W/m2
04:00 10.2 °F 7.1 °F 30.63 in ENE 2.0 mph 3.0 mph 87% 0.00 in 0.00 W/m2
04:05 10.3 °F 7.2 °F 30.63 in East 1.0 mph 1.0 mph 87% 0.00 in 0.00 W/m2
04:10 10.3 °F 7.2 °F 30.63 in ENE 2.0 mph 2.0 mph 87% 0.00 in 0.00 W/m2
04:15 10.3 °F 7.2 °F 30.63 in ENE 2.0 mph 3.0 mph 87% 0.00 in 0.00 W/m2
04:20 10.4 °F 7.3 °F 30.62 in Calm     87% 0.00 in 0.00 W/m2
04:25 10.5 °F 7.4 °F 30.63 in Calm     87% 0.00 in 0.00 W/m2
04:30 10.5 °F 7.4 °F 30.63 in Calm   1.0 mph 87% 0.00 in 0.00 W/m2
04:35 10.7 °F 7.6 °F 30.62 in Calm   2.0 mph 87% 0.00 in 0.00 W/m2
04:40 10.7 °F 7.6 °F 30.63 in NE 2.0 mph 3.0 mph 87% 0.00 in 0.00 W/m2
04:45 10.8 °F 7.7 °F 30.63 in Calm   2.0 mph 87% 0.00 in 0.00 W/m2
04:50 10.8 °F 7.7 °F 30.63 in ENE 2.0 mph 3.0 mph 87% 0.00 in 0.00 W/m2
04:55 10.8 °F 7.7 °F 30.63 in ENE 5.0 mph 5.0 mph 87% 0.00 in 0.00 W/m2
SouthEast Lincoln Weather
Compliments of Weather Underground - 2 mb